createdAt,value
2023-02-02T00:00:52.684Z,5.77
2023-02-02T00:01:52.629Z,5.84
2023-02-02T00:02:52.704Z,5.83
2023-02-02T00:03:52.554Z,5.80
2023-02-02T00:04:52.583Z,5.81
2023-02-02T00:05:52.697Z,5.83
2023-02-02T00:06:52.604Z,5.77
2023-02-02T00:07:52.466Z,5.74
2023-02-02T00:08:52.449Z,5.77
2023-02-02T00:09:52.461Z,5.77
2023-02-02T00:10:52.523Z,5.83
2023-02-02T00:11:52.647Z,5.84
2023-02-02T00:12:52.771Z,5.81
2023-02-02T00:13:53.675Z,5.74
2023-02-02T00:14:52.617Z,5.80
2023-02-02T00:15:52.416Z,5.77
2023-02-02T00:16:52.428Z,5.83
2023-02-02T00:17:52.393Z,5.67
2023-02-02T00:18:52.447Z,5.78
2023-02-02T00:19:52.371Z,5.81
2023-02-02T00:20:52.387Z,5.74
2023-02-02T00:21:52.353Z,5.81
2023-02-02T00:22:52.365Z,5.74
2023-02-02T00:23:52.565Z,5.73
2023-02-02T00:24:52.795Z,5.74
2023-02-02T00:25:56.018Z,5.66
2023-02-02T00:26:55.706Z,5.74
2023-02-02T00:27:55.258Z,5.75
2023-02-02T00:28:52.309Z,5.78
2023-02-02T00:29:52.206Z,5.70
2023-02-02T00:30:52.652Z,5.74
2023-02-02T00:31:54.390Z,5.77
2023-02-02T00:32:52.770Z,5.78
2023-02-02T00:33:52.476Z,5.66
2023-02-02T00:34:52.290Z,5.67
2023-02-02T00:35:54.723Z,5.66
2023-02-02T00:36:52.534Z,5.67
2023-02-02T00:37:54.835Z,5.75
2023-02-02T00:38:52.503Z,5.75
2023-02-02T00:39:52.777Z,5.65
2023-02-02T00:40:52.787Z,5.60
2023-02-02T00:41:52.234Z,5.69
2023-02-02T00:42:52.692Z,5.66
2023-02-02T00:43:53.723Z,5.60
2023-02-02T00:44:53.981Z,5.73
2023-02-02T00:45:52.703Z,5.55
2023-02-02T00:46:55.147Z,5.59
2023-02-02T00:47:52.500Z,5.74
2023-02-02T00:48:52.600Z,5.65
2023-02-02T00:49:52.770Z,5.59
2023-02-02T00:50:53.428Z,5.60
2023-02-02T00:51:52.836Z,5.58
2023-02-02T00:52:53.298Z,5.59
2023-02-02T00:53:53.536Z,5.55
2023-02-02T00:54:52.343Z,5.55
2023-02-02T00:55:52.032Z,5.55
2023-02-02T00:56:51.983Z,5.49
2023-02-02T00:57:52.145Z,5.37
2023-02-02T00:58:52.178Z,5.42
2023-02-02T00:59:52.306Z,5.42
2023-02-02T01:00:51.885Z,5.44
2023-02-02T01:01:51.934Z,5.42
2023-02-02T01:02:52.767Z,5.56
2023-02-02T01:03:51.904Z,5.55
2023-02-02T01:04:51.999Z,5.49
2023-02-02T01:05:51.958Z,5.48
2023-02-02T01:06:52.750Z,5.49
2023-02-02T01:07:51.955Z,5.41
2023-02-02T01:08:51.842Z,5.47
2023-02-02T01:09:52.756Z,5.41
2023-02-02T01:10:51.898Z,5.49
2023-02-02T01:11:52.763Z,5.52
2023-02-02T01:12:51.986Z,5.35
2023-02-02T01:13:51.811Z,5.44
2023-02-02T01:14:51.842Z,5.40
2023-02-02T01:15:52.243Z,5.32
2023-02-02T01:16:51.876Z,5.38
2023-02-02T01:17:51.670Z,5.40
2023-02-02T01:18:51.883Z,5.47
2023-02-02T01:19:52.047Z,5.44
2023-02-02T01:20:53.859Z,5.41
2023-02-02T01:21:52.815Z,5.44
2023-02-02T01:22:53.656Z,5.41
2023-02-02T01:23:54.275Z,5.37
2023-02-02T01:24:52.523Z,5.38
2023-02-02T01:25:52.238Z,5.32
2023-02-02T01:26:51.650Z,5.37
2023-02-02T01:27:51.711Z,5.29
2023-02-02T01:28:53.264Z,5.33
2023-02-02T01:29:52.468Z,5.29
2023-02-02T01:30:53.063Z,5.30
2023-02-02T01:31:51.632Z,5.30
2023-02-02T01:32:51.548Z,5.37
2023-02-02T01:33:51.504Z,5.32
2023-02-02T01:34:51.539Z,5.32
2023-02-02T01:35:51.543Z,5.26
2023-02-02T01:36:51.517Z,5.22
2023-02-02T01:37:51.488Z,5.35
2023-02-02T01:38:51.515Z,5.37
2023-02-02T01:39:51.458Z,5.33
2023-02-02T01:40:52.785Z,5.27
2023-02-02T01:41:51.444Z,5.30
2023-02-02T01:42:51.440Z,5.29
2023-02-02T01:43:51.401Z,5.27
2023-02-02T01:44:51.464Z,5.20
2023-02-02T01:45:51.519Z,5.22
2023-02-02T01:46:51.480Z,5.24
2023-02-02T01:47:51.541Z,5.15
2023-02-02T01:48:52.197Z,5.15
2023-02-02T01:49:51.388Z,5.17
2023-02-02T01:50:51.399Z,5.20
2023-02-02T01:51:51.987Z,5.17
2023-02-02T01:52:52.445Z,5.15
2023-02-02T01:53:51.412Z,5.24
2023-02-02T01:54:51.293Z,5.24
2023-02-02T01:55:51.509Z,5.19
2023-02-02T01:56:54.795Z,5.17
2023-02-02T01:57:51.418Z,5.23
2023-02-02T01:58:51.269Z,5.19
2023-02-02T01:59:51.216Z,5.24
2023-02-02T02:00:51.263Z,5.29
2023-02-02T02:01:51.208Z,5.22
2023-02-02T02:02:51.195Z,5.26
2023-02-02T02:03:51.252Z,5.29
2023-02-02T02:04:51.174Z,5.20
2023-02-02T02:05:52.279Z,5.23
2023-02-02T02:06:51.164Z,5.33
2023-02-02T02:07:51.152Z,5.15
2023-02-02T02:08:51.177Z,5.26
2023-02-02T02:09:51.133Z,5.29
2023-02-02T02:10:51.116Z,5.23
2023-02-02T02:11:51.116Z,5.37
2023-02-02T02:12:51.161Z,5.33
2023-02-02T02:13:51.120Z,5.24
2023-02-02T02:14:51.065Z,5.26
2023-02-02T02:15:51.150Z,5.33
2023-02-02T02:16:51.124Z,5.32
2023-02-02T02:17:51.052Z,5.37
2023-02-02T02:18:51.013Z,5.24
2023-02-02T02:19:51.129Z,5.22
2023-02-02T02:20:51.067Z,5.26
2023-02-02T02:21:51.030Z,5.15
2023-02-02T02:22:51.017Z,5.20
2023-02-02T02:23:50.993Z,5.15
2023-02-02T02:24:51.021Z,5.23
2023-02-02T02:25:50.943Z,5.27
2023-02-02T02:26:50.939Z,5.20
2023-02-02T02:27:52.449Z,5.15
2023-02-02T02:28:51.212Z,5.14
2023-02-02T02:29:51.328Z,5.19
2023-02-02T02:30:51.069Z,5.23
2023-02-02T02:31:51.003Z,5.22
2023-02-02T02:32:50.909Z,5.06
2023-02-02T02:33:50.968Z,5.17
2023-02-02T02:34:51.090Z,5.11
2023-02-02T02:35:51.581Z,5.19
2023-02-02T02:36:50.851Z,5.11
2023-02-02T02:37:50.875Z,5.20
2023-02-02T02:38:50.810Z,5.23
2023-02-02T02:39:50.840Z,5.19
2023-02-02T02:40:50.805Z,5.24
2023-02-02T02:41:50.951Z,5.15
2023-02-02T02:42:51.170Z,5.15
2023-02-02T02:43:50.835Z,5.14
2023-02-02T02:44:50.745Z,5.19
2023-02-02T02:45:51.048Z,5.22
2023-02-02T02:46:50.873Z,5.23
2023-02-02T02:47:50.820Z,5.22
2023-02-02T02:48:50.860Z,5.24
2023-02-02T02:49:50.694Z,5.26
2023-02-02T02:50:50.698Z,5.27
2023-02-02T02:51:50.709Z,5.20
2023-02-02T02:52:50.694Z,5.22
2023-02-02T02:53:50.622Z,5.19
2023-02-02T02:54:50.765Z,5.20
2023-02-02T02:55:50.643Z,5.29
2023-02-02T02:56:50.606Z,5.17
2023-02-02T02:57:50.618Z,5.35
2023-02-02T02:58:50.624Z,5.32
2023-02-02T02:59:50.659Z,5.17
2023-02-02T03:00:50.596Z,5.32
2023-02-02T03:01:50.624Z,5.19
2023-02-02T03:02:50.587Z,5.30
2023-02-02T03:03:50.519Z,5.24
2023-02-02T03:04:50.504Z,5.26
2023-02-02T03:05:50.765Z,5.27
2023-02-02T03:06:50.489Z,5.26
2023-02-02T03:07:50.498Z,5.20
2023-02-02T03:08:50.541Z,5.32
2023-02-02T03:09:51.119Z,5.19
2023-02-02T03:10:50.597Z,5.23
2023-02-02T03:11:50.457Z,5.23
2023-02-02T03:12:50.426Z,5.32
2023-02-02T03:13:50.415Z,5.35
2023-02-02T03:14:50.389Z,5.22
2023-02-02T03:15:50.428Z,5.22
2023-02-02T03:16:50.443Z,5.32
2023-02-02T03:17:50.417Z,5.23
2023-02-02T03:18:50.409Z,5.24
2023-02-02T03:19:50.352Z,5.26
2023-02-02T03:20:50.329Z,5.27
2023-02-02T03:21:50.339Z,5.27
2023-02-02T03:22:50.356Z,5.30
2023-02-02T03:23:50.363Z,5.32
2023-02-02T03:24:50.357Z,5.26
2023-02-02T03:25:50.262Z,5.35
2023-02-02T03:26:50.324Z,5.26
2023-02-02T03:27:50.324Z,5.29
2023-02-02T03:28:50.403Z,5.26
2023-02-02T03:29:50.229Z,5.35
2023-02-02T03:30:50.286Z,5.29
2023-02-02T03:31:50.389Z,5.33
2023-02-02T03:32:50.501Z,5.30
2023-02-02T03:33:50.208Z,5.30
2023-02-02T03:34:50.181Z,5.32
2023-02-02T03:35:50.237Z,5.23
2023-02-02T03:36:50.227Z,5.26
2023-02-02T03:37:50.367Z,5.32
2023-02-02T03:38:50.500Z,5.41
2023-02-02T03:39:50.106Z,5.30
2023-02-02T03:40:50.136Z,5.32
2023-02-02T03:41:50.090Z,5.40
2023-02-02T03:42:50.114Z,5.45
2023-02-02T03:43:50.240Z,5.45
2023-02-02T03:44:50.077Z,5.44
2023-02-02T03:45:50.141Z,5.45
2023-02-02T03:46:50.071Z,5.40
2023-02-02T03:47:50.038Z,5.45
2023-02-02T03:48:51.009Z,5.35
2023-02-02T03:49:50.027Z,5.52
2023-02-02T03:50:49.969Z,5.44
2023-02-02T03:51:50.020Z,5.48
2023-02-02T03:52:49.986Z,5.45
2023-02-02T03:53:49.956Z,5.49
2023-02-02T03:54:49.932Z,5.47
2023-02-02T03:55:49.966Z,5.48
2023-02-02T03:56:49.946Z,5.45
2023-02-02T03:57:49.972Z,5.42
2023-02-02T03:58:49.887Z,5.47
2023-02-02T03:59:49.923Z,5.47
2023-02-02T04:00:49.951Z,5.45
2023-02-02T04:01:49.990Z,5.38
2023-02-02T04:02:50.026Z,5.55
2023-02-02T04:03:49.875Z,5.56
2023-02-02T04:04:49.923Z,5.56
2023-02-02T04:05:50.296Z,5.59
2023-02-02T04:06:49.820Z,5.63
2023-02-02T04:07:49.815Z,5.58
2023-02-02T04:08:49.775Z,5.58
2023-02-02T04:09:49.788Z,5.65
2023-02-02T04:10:49.827Z,5.75
2023-02-02T04:11:49.784Z,5.66
2023-02-02T04:12:49.743Z,5.69
2023-02-02T04:13:49.751Z,5.62
2023-02-02T04:14:49.674Z,5.69
2023-02-02T04:15:49.770Z,5.77
2023-02-02T04:16:49.719Z,5.78
2023-02-02T04:17:49.704Z,5.70
2023-02-02T04:18:49.690Z,5.70
2023-02-02T04:19:49.699Z,5.73
2023-02-02T04:20:49.637Z,5.70
2023-02-02T04:21:49.635Z,5.73
2023-02-02T04:22:49.673Z,5.73
2023-02-02T04:23:49.623Z,5.75
2023-02-02T04:24:49.603Z,5.80
2023-02-02T04:25:49.556Z,5.69
2023-02-02T04:26:49.613Z,5.75
2023-02-02T04:27:49.615Z,5.70
2023-02-02T04:28:49.664Z,5.73
2023-02-02T04:29:49.726Z,5.74
2023-02-02T04:30:49.570Z,5.70
2023-02-02T04:31:49.747Z,5.85
2023-02-02T04:32:49.573Z,5.80
2023-02-02T04:33:49.640Z,5.80
2023-02-02T04:34:49.617Z,5.77
2023-02-02T04:35:49.744Z,5.81
2023-02-02T04:36:51.189Z,5.77
2023-02-02T04:37:49.475Z,5.81
2023-02-02T04:38:49.654Z,5.78
2023-02-02T04:39:49.450Z,5.81
2023-02-02T04:40:49.464Z,5.85
2023-02-02T04:41:49.447Z,5.88
2023-02-02T04:42:49.401Z,5.84
2023-02-02T04:43:49.399Z,5.92
2023-02-02T04:44:49.386Z,5.81
2023-02-02T04:45:49.451Z,5.81
2023-02-02T04:46:49.363Z,5.85
2023-02-02T04:47:49.369Z,5.83
2023-02-02T04:48:49.342Z,5.84
2023-02-02T04:49:49.323Z,5.75
2023-02-02T04:50:49.323Z,5.81
2023-02-02T04:51:49.310Z,5.81
2023-02-02T04:52:49.399Z,5.70
2023-02-02T04:53:49.282Z,5.80
2023-02-02T04:54:49.244Z,5.83
2023-02-02T04:55:49.263Z,5.77
2023-02-02T04:56:49.296Z,5.73
2023-02-02T04:57:49.256Z,5.67
2023-02-02T04:58:49.274Z,5.78
2023-02-02T04:59:49.218Z,5.67
2023-02-02T05:00:49.229Z,5.67
2023-02-02T05:01:49.258Z,5.74
2023-02-02T05:02:49.243Z,5.69
2023-02-02T05:03:50.195Z,5.63
2023-02-02T05:04:49.249Z,5.77
2023-02-02T05:05:49.177Z,5.69
2023-02-02T05:06:49.189Z,5.74
2023-02-02T05:07:49.139Z,5.73
2023-02-02T05:08:49.418Z,5.56
2023-02-02T05:09:49.136Z,5.62
2023-02-02T05:10:49.056Z,5.56
2023-02-02T05:11:49.395Z,5.62
2023-02-02T05:12:49.060Z,5.62
2023-02-02T05:13:49.086Z,5.60
2023-02-02T05:14:49.040Z,5.59
2023-02-02T05:15:49.017Z,5.51
2023-02-02T05:16:49.101Z,5.56
2023-02-02T05:17:49.014Z,5.59
2023-02-02T05:18:49.051Z,5.58
2023-02-02T05:19:49.005Z,5.55
2023-02-02T05:20:49.270Z,5.51
2023-02-02T05:21:51.020Z,5.47
2023-02-02T05:22:49.024Z,5.47
2023-02-02T05:23:48.920Z,5.48
2023-02-02T05:24:48.967Z,5.38
2023-02-02T05:25:49.041Z,5.49
2023-02-02T05:26:48.927Z,5.48
2023-02-02T05:27:48.902Z,5.49
2023-02-02T05:28:49.075Z,5.49
2023-02-02T05:29:48.862Z,5.47
2023-02-02T05:30:48.905Z,5.41
2023-02-02T05:31:48.899Z,5.42
2023-02-02T05:32:48.846Z,5.45
2023-02-02T05:33:48.895Z,5.47
2023-02-02T05:34:48.839Z,5.48
2023-02-02T05:35:48.842Z,5.44
2023-02-02T05:36:48.819Z,5.45
2023-02-02T05:37:48.798Z,5.48
2023-02-02T05:38:48.814Z,5.42
2023-02-02T05:39:48.752Z,5.33
2023-02-02T05:40:48.772Z,5.41
2023-02-02T05:41:48.780Z,5.44
2023-02-02T05:42:48.747Z,5.44
2023-02-02T05:43:48.713Z,5.30
2023-02-02T05:44:48.747Z,5.29
2023-02-02T05:45:48.671Z,5.33
2023-02-02T05:46:48.711Z,5.23
2023-02-02T05:47:48.740Z,5.20
2023-02-02T05:48:48.693Z,5.27
2023-02-02T05:49:48.646Z,5.30
2023-02-02T05:50:48.713Z,5.40
2023-02-02T05:51:48.738Z,5.23
2023-02-02T05:52:48.644Z,5.27
2023-02-02T05:53:48.606Z,5.24
2023-02-02T05:54:48.575Z,5.22
2023-02-02T05:55:48.577Z,5.23
2023-02-02T05:56:48.581Z,5.15
2023-02-02T05:57:48.542Z,5.20
2023-02-02T05:58:48.536Z,5.15
2023-02-02T05:59:48.508Z,5.23
2023-02-02T06:00:48.537Z,5.11
2023-02-02T06:01:48.560Z,5.20
2023-02-02T06:02:48.501Z,5.26
2023-02-02T06:03:48.575Z,5.12
2023-02-02T06:04:48.642Z,5.17
2023-02-02T06:05:48.490Z,5.20
2023-02-02T06:06:48.514Z,5.22
2023-02-02T06:07:48.429Z,5.11
2023-02-02T06:08:48.442Z,5.11
2023-02-02T06:09:48.405Z,5.08
2023-02-02T06:10:48.376Z,5.17
2023-02-02T06:11:48.418Z,5.14
2023-02-02T06:12:48.406Z,5.11
2023-02-02T06:13:48.397Z,5.05
2023-02-02T06:14:48.350Z,5.08
2023-02-02T06:15:48.349Z,5.08
2023-02-02T06:16:48.311Z,4.97
2023-02-02T06:17:48.366Z,5.02
2023-02-02T06:18:48.368Z,4.99
2023-02-02T06:19:48.266Z,4.97
2023-02-02T06:20:48.305Z,4.96
2023-02-02T06:21:48.312Z,4.94
2023-02-02T06:22:48.267Z,4.94
2023-02-02T06:23:48.258Z,4.94
2023-02-02T06:24:48.254Z,4.94
2023-02-02T06:25:48.246Z,4.97
2023-02-02T06:26:48.265Z,4.94
2023-02-02T06:27:48.222Z,4.94
2023-02-02T06:28:48.218Z,4.90
2023-02-02T06:29:48.173Z,4.86
2023-02-02T06:30:48.276Z,4.90
2023-02-02T06:31:48.314Z,4.87
2023-02-02T06:32:48.147Z,4.94
2023-02-02T06:33:48.146Z,4.88
2023-02-02T06:34:48.159Z,4.96
2023-02-02T06:35:48.133Z,4.90
2023-02-02T06:36:49.128Z,4.88
2023-02-02T06:37:48.109Z,4.96
2023-02-02T06:38:48.368Z,4.93
2023-02-02T06:39:48.100Z,4.96
2023-02-02T06:40:48.091Z,4.80
2023-02-02T06:41:48.061Z,4.83
2023-02-02T06:42:48.027Z,4.80
2023-02-02T06:43:48.083Z,4.87
2023-02-02T06:44:48.116Z,4.74
2023-02-02T06:45:48.749Z,4.75
2023-02-02T06:46:48.012Z,4.77
2023-02-02T06:47:48.000Z,4.69
2023-02-02T06:48:48.078Z,4.75
2023-02-02T06:49:47.997Z,4.67
2023-02-02T06:50:47.959Z,4.71
2023-02-02T06:51:47.995Z,4.65
2023-02-02T06:52:47.942Z,4.61
2023-02-02T06:53:47.975Z,4.62
2023-02-02T06:54:47.899Z,4.65
2023-02-02T06:55:47.969Z,4.59
2023-02-02T06:56:47.895Z,4.57
2023-02-02T06:57:47.938Z,4.61
2023-02-02T06:58:47.866Z,4.61
2023-02-02T06:59:47.836Z,4.69
2023-02-02T07:00:47.877Z,4.67
2023-02-02T07:01:47.863Z,4.68
2023-02-02T07:02:47.903Z,4.72
2023-02-02T07:03:47.827Z,4.72
2023-02-02T07:04:47.798Z,4.69
2023-02-02T07:05:47.784Z,4.68
2023-02-02T07:06:47.777Z,4.62
2023-02-02T07:07:47.800Z,4.72
2023-02-02T07:08:57.488Z,4.69
2023-02-02T07:09:48.762Z,4.79
2023-02-02T07:11:15.764Z,4.67
2023-02-02T07:11:48.723Z,4.68
2023-02-02T07:12:47.711Z,4.77
2023-02-02T07:13:47.722Z,4.75
2023-02-02T07:14:47.724Z,4.75
2023-02-02T07:15:47.790Z,4.77
2023-02-02T07:16:47.677Z,4.74
2023-02-02T07:17:47.650Z,4.74
2023-02-02T07:18:47.657Z,4.67
2023-02-02T07:19:47.614Z,4.62
2023-02-02T07:20:47.643Z,4.62
2023-02-02T07:21:47.641Z,4.59
2023-02-02T07:22:47.638Z,4.59
2023-02-02T07:23:47.593Z,4.64
2023-02-02T07:24:47.604Z,4.61
2023-02-02T07:25:47.575Z,4.57
2023-02-02T07:26:47.635Z,4.72
2023-02-02T07:27:47.563Z,4.59
2023-02-02T07:28:47.589Z,4.56
2023-02-02T07:29:47.579Z,4.61
2023-02-02T07:30:47.651Z,4.69
2023-02-02T07:31:47.593Z,4.61
2023-02-02T07:32:47.456Z,4.64
2023-02-02T07:33:47.504Z,4.59
2023-02-02T07:34:47.583Z,4.65
2023-02-02T07:35:47.456Z,4.65
2023-02-02T07:36:47.430Z,4.53
2023-02-02T07:37:47.492Z,4.57
2023-02-02T07:38:47.464Z,4.54
2023-02-02T07:39:47.411Z,4.44
2023-02-02T07:40:48.260Z,4.39
2023-02-02T07:41:50.801Z,4.35
2023-02-02T07:42:47.487Z,4.31
2023-02-02T07:43:47.407Z,4.25
2023-02-02T07:44:47.383Z,4.26
2023-02-02T07:45:47.351Z,4.29
2023-02-02T07:46:47.453Z,4.17
2023-02-02T07:47:47.354Z,4.08
2023-02-02T07:48:47.353Z,4.07
2023-02-02T07:49:47.329Z,4.14
2023-02-02T07:50:47.279Z,4.11
2023-02-02T07:51:47.907Z,4.11
2023-02-02T07:52:48.310Z,4.10
2023-02-02T07:53:47.264Z,4.13
2023-02-02T07:54:47.240Z,4.16
2023-02-02T07:55:47.262Z,4.14
2023-02-02T07:56:47.260Z,4.14
2023-02-02T07:57:47.224Z,4.17
2023-02-02T07:58:47.214Z,4.24
2023-02-02T07:59:47.200Z,4.21
2023-02-02T08:00:47.258Z,4.25
2023-02-02T08:01:47.335Z,4.32
2023-02-02T08:02:47.254Z,4.36
2023-02-02T08:03:47.173Z,4.35
2023-02-02T08:04:47.190Z,4.35
2023-02-02T08:05:47.211Z,4.38
2023-02-02T08:06:47.179Z,4.36
2023-02-02T08:07:47.159Z,4.36
2023-02-02T08:08:47.111Z,4.35
2023-02-02T08:09:47.089Z,4.47
2023-02-02T08:10:47.072Z,4.42
2023-02-02T08:11:47.102Z,4.49
2023-02-02T08:12:48.064Z,4.50
2023-02-02T08:13:47.087Z,4.46
2023-02-02T08:14:47.069Z,4.43
2023-02-02T08:15:47.041Z,4.34
2023-02-02T08:16:47.027Z,4.44
2023-02-02T08:17:47.042Z,4.44
2023-02-02T08:18:47.043Z,4.34
2023-02-02T08:19:47.043Z,4.18
2023-02-02T08:20:47.015Z,4.20
2023-02-02T08:21:46.962Z,4.13
2023-02-02T08:22:46.962Z,4.11
2023-02-02T08:23:46.937Z,4.16
2023-02-02T08:24:46.976Z,4.24
2023-02-02T08:25:46.982Z,4.11
2023-02-02T08:26:46.946Z,4.24
2023-02-02T08:27:46.857Z,4.11
2023-02-02T08:28:46.936Z,4.14
2023-02-02T08:29:46.872Z,4.02
2023-02-02T08:30:46.954Z,4.07
2023-02-02T08:31:46.901Z,4.07
2023-02-02T08:32:46.834Z,4.04
2023-02-02T08:33:46.809Z,3.86
2023-02-02T08:34:46.854Z,3.93
2023-02-02T08:35:46.842Z,3.89
2023-02-02T08:36:46.821Z,3.89
2023-02-02T08:37:46.799Z,3.89
2023-02-02T08:38:46.780Z,3.77
2023-02-02T08:39:46.787Z,3.90
2023-02-02T08:40:46.768Z,3.88
2023-02-02T08:41:46.750Z,3.89
2023-02-02T08:42:46.719Z,3.80
2023-02-02T08:43:50.093Z,3.77
2023-02-02T08:46:02.840Z,3.86
2023-02-02T08:46:12.727Z,3.86
2023-02-02T08:46:52.269Z,3.82
2023-02-02T08:47:58.896Z,3.82
2023-02-02T08:48:52.645Z,3.80
2023-02-02T08:49:51.026Z,3.95
2023-02-02T08:50:51.577Z,3.77
2023-02-02T08:51:49.873Z,3.81
2023-02-02T08:52:49.060Z,3.71
2023-02-02T08:53:50.227Z,3.81
2023-02-02T08:54:49.366Z,3.81
2023-02-02T08:55:49.599Z,3.70
2023-02-02T08:56:51.405Z,3.64
2023-02-02T08:57:51.045Z,3.71
2023-02-02T08:58:49.807Z,3.75
2023-02-02T08:59:49.907Z,3.64
2023-02-02T09:00:48.908Z,3.68
2023-02-02T09:01:46.976Z,3.72
2023-02-02T09:02:51.352Z,3.70
2023-02-02T09:03:52.003Z,3.57
2023-02-02T09:05:57.926Z,3.68
2023-02-02T09:07:02.860Z,3.64
2023-02-02T09:08:03.342Z,3.74
2023-02-02T09:09:04.021Z,3.60
2023-02-02T09:10:04.220Z,3.52
2023-02-02T09:11:02.996Z,3.50
2023-02-02T09:12:00.883Z,3.54
2023-02-02T09:13:03.874Z,3.49
2023-02-02T09:14:04.425Z,3.63
2023-02-02T09:15:04.605Z,3.60
2023-02-02T09:16:00.870Z,3.57
2023-02-02T09:17:03.935Z,3.50
2023-02-02T09:18:12.488Z,3.54
2023-02-02T09:19:03.998Z,3.41
2023-02-02T09:20:03.838Z,3.46
2023-02-02T09:21:01.346Z,3.37
2023-02-02T09:22:03.272Z,3.42
2023-02-02T09:23:02.674Z,3.37
2023-02-02T09:24:02.496Z,3.39
2023-02-02T09:25:02.987Z,3.30
2023-02-02T09:26:02.766Z,3.33
2023-02-02T09:27:02.986Z,3.23
2023-02-02T09:28:01.879Z,3.35
2023-02-02T09:29:04.347Z,3.42
2023-02-02T09:30:05.046Z,3.35
2023-02-02T09:31:01.659Z,3.33
2023-02-02T09:32:02.834Z,3.31
2023-02-02T09:33:02.876Z,3.28
2023-02-02T09:34:01.453Z,3.34
2023-02-02T09:35:03.997Z,3.33
2023-02-02T09:36:03.171Z,3.25
2023-02-02T09:37:03.613Z,3.31
2023-02-02T09:38:02.032Z,3.20
2023-02-02T09:39:03.889Z,3.28
2023-02-02T09:40:04.626Z,3.35
2023-02-02T09:41:01.494Z,3.34
2023-02-02T09:42:01.702Z,3.41
2023-02-02T09:43:01.521Z,3.41
2023-02-02T09:44:03.441Z,3.41
2023-02-02T09:44:58.773Z,3.35
2023-02-02T09:46:03.101Z,3.26
2023-02-02T09:47:03.375Z,3.25
2023-02-02T09:48:02.844Z,3.25
2023-02-02T09:49:04.332Z,3.28
2023-02-02T09:50:02.506Z,3.17
2023-02-02T09:51:02.364Z,3.25
2023-02-02T09:52:01.616Z,3.20
2023-02-02T09:53:00.115Z,3.22
2023-02-02T09:54:05.037Z,3.34
2023-02-02T09:55:01.243Z,3.20
2023-02-02T09:59:24.794Z,3.25
2023-02-02T10:00:21.595Z,3.17
2023-02-02T10:01:16.804Z,3.22
2023-02-02T10:02:20.269Z,3.20
2023-02-02T10:03:36.837Z,3.17
2023-02-02T10:04:28.855Z,3.26
2023-02-02T10:05:20.906Z,3.25
2023-02-02T10:06:30.504Z,3.23
2023-02-02T10:07:17.141Z,3.26
2023-02-02T10:08:34.330Z,3.17
2023-02-02T10:09:22.979Z,3.25
2023-02-02T10:10:26.027Z,3.19
2023-02-02T10:11:24.399Z,3.19
2023-02-02T10:12:23.263Z,3.30
2023-02-02T10:13:28.700Z,3.20
2023-02-02T10:14:18.937Z,3.20
2023-02-02T10:15:11.990Z,3.19
2023-02-02T10:16:11.960Z,3.25
2023-02-02T10:17:11.954Z,3.12
2023-02-02T10:18:12.069Z,3.16
2023-02-02T10:19:11.921Z,3.07
2023-02-02T10:20:12.081Z,3.04
2023-02-02T10:21:11.921Z,3.10
2023-02-02T10:22:11.887Z,3.13
2023-02-02T10:23:11.854Z,3.12
2023-02-02T10:24:11.855Z,3.23
2023-02-02T10:25:11.857Z,3.13
2023-02-02T10:26:11.842Z,3.16
2023-02-02T10:27:12.745Z,3.07
2023-02-02T10:28:11.831Z,3.10
2023-02-02T10:29:11.809Z,3.02
2023-02-02T10:30:11.829Z,3.05
2023-02-02T10:31:11.916Z,3.05
2023-02-02T10:32:11.845Z,3.12
2023-02-02T10:33:11.752Z,2.97
2023-02-02T10:34:11.783Z,2.94
2023-02-02T10:35:14.321Z,2.99
2023-02-02T10:36:12.763Z,3.05
2023-02-02T10:37:11.734Z,2.90
2023-02-02T10:38:11.699Z,2.90
2023-02-02T10:39:11.723Z,2.84
2023-02-02T10:40:11.752Z,2.58
2023-02-02T10:41:11.665Z,2.61
2023-02-02T10:42:11.710Z,2.29
2023-02-02T10:44:22.796Z,2.29
2023-02-02T10:44:29.624Z,2.25
2023-02-02T10:46:13.944Z,2.38
2023-02-02T10:50:00.190Z,2.38
2023-02-02T10:52:41.154Z,2.37
2023-02-02T10:54:36.247Z,2.09
2023-02-02T10:56:27.755Z,2.01
2023-02-02T10:57:10.580Z,1.74
2023-02-02T10:59:34.396Z,1.77
2023-02-02T11:04:54.334Z,1.67
2023-02-02T11:05:24.113Z,1.61
2023-02-02T11:06:22.637Z,1.57
2023-02-02T11:07:23.011Z,1.68
2023-02-02T11:08:21.880Z,1.72
2023-02-02T11:09:23.292Z,1.74
2023-02-02T11:10:22.469Z,1.70
2023-02-02T11:11:23.388Z,1.60
2023-02-02T11:12:21.085Z,1.56
2023-02-02T11:13:22.062Z,1.64
2023-02-02T11:14:21.957Z,1.53
2023-02-02T11:15:28.277Z,1.63
2023-02-02T11:16:22.559Z,1.63
2023-02-02T11:17:23.802Z,1.63
2023-02-02T11:18:22.295Z,1.57
2023-02-02T11:19:18.995Z,1.63
2023-02-02T11:20:18.981Z,1.65
2023-02-02T11:21:19.791Z,1.67
2023-02-02T11:22:18.930Z,1.64
2023-02-02T11:23:22.176Z,1.56
2023-02-02T11:24:18.930Z,1.67
2023-02-02T11:25:18.910Z,1.53
2023-02-02T11:26:18.942Z,1.57
2023-02-02T11:27:18.897Z,1.47
2023-02-02T11:28:18.974Z,1.46
2023-02-02T11:29:18.897Z,1.63
2023-02-02T11:30:18.855Z,1.68
2023-02-02T11:31:18.913Z,1.64
2023-02-02T11:32:18.843Z,1.61
2023-02-02T11:33:18.812Z,1.56
2023-02-02T11:34:20.608Z,1.57
2023-02-02T11:35:19.786Z,1.46
2023-02-02T11:36:18.926Z,1.61
2023-02-02T11:37:18.755Z,1.64
2023-02-02T11:38:18.794Z,1.64
2023-02-02T11:39:18.783Z,1.68
2023-02-02T11:40:18.771Z,1.67
2023-02-02T11:41:18.768Z,1.64
2023-02-02T11:42:18.726Z,1.53
2023-02-02T11:43:18.714Z,1.67
2023-02-02T11:44:18.692Z,1.67
2023-02-02T11:45:18.691Z,1.71
2023-02-02T11:46:18.739Z,1.68
2023-02-02T11:47:18.691Z,1.72
2023-02-02T11:48:18.639Z,1.79
2023-02-02T11:49:18.652Z,1.88
2023-02-02T11:50:18.639Z,1.98
2023-02-02T11:51:18.674Z,1.95
2023-02-02T11:52:18.614Z,1.93
2023-02-02T11:53:18.625Z,1.95
2023-02-02T11:54:18.579Z,1.95
2023-02-02T11:55:18.569Z,2.01
2023-02-02T11:56:18.631Z,1.98
2023-02-02T11:57:18.553Z,1.95
2023-02-02T11:58:18.518Z,1.95
2023-02-02T11:59:18.534Z,2.00
2023-02-02T12:00:18.508Z,2.01
2023-02-02T12:01:18.489Z,2.02
2023-02-02T12:02:18.605Z,2.08
2023-02-02T12:03:18.489Z,2.00
2023-02-02T12:04:18.618Z,1.98
2023-02-02T12:05:18.447Z,2.09
2023-02-02T12:06:18.439Z,2.09
2023-02-02T12:07:18.424Z,2.02
2023-02-02T12:08:18.495Z,1.95
2023-02-02T12:09:18.399Z,1.98
2023-02-02T12:10:18.386Z,2.00
2023-02-02T12:11:18.377Z,2.00
2023-02-02T12:12:18.375Z,2.02
2023-02-02T12:13:18.434Z,2.04
2023-02-02T12:14:18.490Z,2.02
2023-02-02T12:15:18.384Z,1.79
2023-02-02T12:16:18.399Z,1.70
2023-02-02T12:17:18.317Z,1.64
2023-02-02T12:18:18.312Z,1.71
2023-02-02T12:19:18.323Z,1.77
2023-02-02T12:20:19.330Z,1.64
2023-02-02T12:21:18.257Z,1.79
2023-02-02T12:22:18.260Z,1.74
2023-02-02T12:23:18.253Z,1.74
2023-02-02T12:24:18.289Z,1.79
2023-02-02T12:25:18.252Z,1.77
2023-02-02T12:26:18.327Z,1.85
2023-02-02T12:27:18.229Z,1.93
2023-02-02T12:28:18.163Z,2.00
2023-02-02T12:29:18.234Z,1.98
2023-02-02T12:30:18.231Z,2.00
2023-02-02T12:31:18.268Z,1.98
2023-02-02T12:32:18.874Z,1.92
2023-02-02T12:33:18.240Z,2.01
2023-02-02T12:34:18.107Z,2.08
2023-02-02T12:35:18.854Z,2.12
2023-02-02T12:36:19.030Z,2.20
2023-02-02T12:37:18.115Z,2.18
2023-02-02T12:38:18.180Z,2.07
2023-02-02T12:39:18.062Z,2.04
2023-02-02T12:40:18.068Z,2.01
2023-02-02T12:41:18.093Z,2.05
2023-02-02T12:42:18.070Z,2.00
2023-02-02T12:43:18.075Z,2.18
2023-02-02T12:44:18.170Z,2.15
2023-02-02T12:45:18.006Z,2.23
2023-02-02T12:46:18.094Z,2.20
2023-02-02T12:47:17.970Z,2.18
2023-02-02T12:48:18.034Z,2.22
2023-02-02T12:49:17.973Z,1.93
2023-02-02T12:50:17.924Z,2.00
2023-02-02T12:51:17.947Z,1.90
2023-02-02T12:52:17.932Z,1.93
2023-02-02T12:53:17.937Z,1.93
2023-02-02T12:54:34.962Z,1.79
2023-02-02T12:55:18.926Z,1.90
2023-02-02T12:56:18.074Z,1.92
2023-02-02T12:57:17.861Z,1.92
2023-02-02T12:58:17.888Z,2.02
2023-02-02T12:59:17.847Z,2.08
2023-02-02T13:00:17.842Z,1.98
2023-02-02T13:01:17.970Z,1.89
2023-02-02T13:02:17.887Z,1.88
2023-02-02T13:03:17.830Z,1.98
2023-02-02T13:04:17.765Z,1.98
2023-02-02T13:05:17.772Z,1.93
2023-02-02T13:06:17.781Z,1.95
2023-02-02T13:07:17.749Z,2.05
2023-02-02T13:08:17.806Z,2.01
2023-02-02T13:09:19.917Z,2.02
2023-02-02T13:10:18.745Z,2.01
2023-02-02T13:11:17.812Z,2.01
2023-02-02T13:12:17.685Z,2.01
2023-02-02T13:13:17.682Z,2.04
2023-02-02T13:14:17.679Z,2.04
2023-02-02T13:15:17.670Z,2.05
2023-02-02T13:16:17.667Z,2.25
2023-02-02T13:17:17.653Z,2.18
2023-02-02T13:18:17.609Z,2.25
2023-02-02T13:19:17.639Z,2.19
2023-02-02T13:20:17.657Z,2.36
2023-02-02T13:21:17.634Z,2.36
2023-02-02T13:22:18.880Z,2.36
2023-02-02T13:23:18.737Z,2.50
2023-02-02T13:24:18.741Z,2.44
2023-02-02T13:25:18.737Z,2.43
2023-02-02T13:26:18.806Z,2.32
2023-02-02T13:27:17.664Z,2.38
2023-02-02T13:28:18.060Z,2.36
2023-02-02T13:29:18.010Z,2.27
2023-02-02T13:30:18.008Z,2.40
2023-02-02T13:31:18.310Z,2.37
2023-02-02T13:32:18.112Z,2.40
2023-02-02T13:33:24.941Z,2.38
2023-02-02T13:34:17.498Z,2.38
2023-02-02T13:35:18.783Z,2.47